Time;durP1;ratioP1;P1;durP2;ratioP2;P2;SDS_P1;SDS_P2;PMS_P1;PMS_P2;Temp;Humidity;BMP_temperature;BMP_pressure;BME280_temperature;BME280_humidity;BME280_pressure;Samples;Min_cycle;Max_cycle;Signal;HPM_P1;HPM_P2
2021/05/23 00:01:32;;;;;;;22.90;7.40;;;17.00;99.90;;;;;;5029637;28;20068;-73
2021/05/23 00:03:58;;;;;;;20.67;9.23;;;17.10;99.90;;;;;;5032848;28;20033;-72
2021/05/23 00:06:24;;;;;;;18.20;7.43;;;17.10;99.90;;;;;;5031198;28;20038;-72
2021/05/23 00:08:50;;;;;;;19.35;6.45;;;17.10;99.90;;;;;;5031050;28;20641;-72
2021/05/23 00:11:16;;;;;;;17.70;6.45;;;17.20;99.90;;;;;;5031806;28;20045;-74
2021/05/23 00:13:44;;;;;;;18.08;6.80;;;17.10;99.90;;;;;;5033154;28;20026;-73
2021/05/23 00:16:16;;;;;;;22.63;6.28;;;17.10;99.90;;;;;;5031509;28;20378;-73
2021/05/23 00:18:46;;;;;;;21.70;6.07;;;17.20;99.90;;;;;;5018967;28;20029;-73
2021/05/23 00:21:13;;;;;;;16.20;6.88;;;17.10;99.90;;;;;;5033703;28;20511;-73
2021/05/23 00:23:39;;;;;;;23.67;7.32;;;17.10;99.90;;;;;;5031716;28;20044;-72
2021/05/23 00:26:05;;;;;;;16.13;5.65;;;17.10;99.90;;;;;;5028920;28;20076;-73
2021/05/23 00:28:32;;;;;;;21.13;6.95;;;17.20;99.90;;;;;;5032179;28;20115;-73
2021/05/23 00:30:59;;;;;;;25.52;6.95;;;17.20;99.90;;;;;;5033438;28;20028;-73
2021/05/23 00:33:25;;;;;;;17.05;6.95;;;17.20;99.90;;;;;;5033426;28;20045;-73
2021/05/23 00:35:51;;;;;;;15.57;6.80;;;17.20;99.90;;;;;;5045350;28;20029;-73
2021/05/23 00:38:17;;;;;;;29.17;7.75;;;17.10;99.90;;;;;;5036144;28;20021;-73
2021/05/23 00:40:43;;;;;;;25.15;7.00;;;17.20;99.90;;;;;;5046022;28;20102;-73
2021/05/23 00:43:14;;;;;;;17.98;6.15;;;17.10;99.90;;;;;;5038495;28;20514;-75
2021/05/23 00:45:40;;;;;;;29.30;7.17;;;17.20;99.90;;;;;;5038771;28;20018;-74
2021/05/23 00:48:07;;;;;;;22.95;6.47;;;17.30;99.90;;;;;;5040031;28;20040;-73
2021/05/23 00:50:33;;;;;;;20.92;7.13;;;17.30;99.90;;;;;;5031302;28;20028;-73
2021/05/23 00:53:01;;;;;;;21.20;6.57;;;17.30;99.90;;;;;;5033575;28;20025;-72
2021/05/23 00:55:27;;;;;;;16.88;5.75;;;17.30;99.90;;;;;;5032766;28;20025;-73
2021/05/23 00:57:53;;;;;;;18.45;6.43;;;17.30;99.90;;;;;;5016819;28;20048;-73
2021/05/23 01:00:41;;;;;;;15.73;5.57;;;17.30;99.90;;;;;;5047297;28;20061;-73
2021/05/23 01:03:26;;;;;;;17.25;6.57;;;17.30;99.90;;;;;;5033963;28;20391;-74
2021/05/23 01:05:53;;;;;;;20.30;6.63;;;17.40;99.90;;;;;;5031473;28;20025;-74
2021/05/23 01:08:21;;;;;;;24.95;7.00;;;17.40;99.90;;;;;;5040582;28;20087;-73
2021/05/23 01:10:53;;;;;;;19.88;6.00;;;17.40;99.90;;;;;;5040984;28;20092;-73
2021/05/23 01:13:37;;;;;;;16.15;6.25;;;17.40;99.90;;;;;;5043572;28;20037;-73
2021/05/23 01:16:17;;;;;;;19.25;7.93;;;17.30;99.90;;;;;;5032290;28;20028;-72
2021/05/23 01:18:51;;;;;;;27.45;6.35;;;17.40;99.90;;;;;;5036904;28;20487;-73
2021/05/23 01:21:19;;;;;;;24.75;7.13;;;17.30;99.90;;;;;;5038848;28;20021;-73
2021/05/23 01:23:54;;;;;;;15.40;5.25;;;17.30;99.90;;;;;;5035425;28;20494;-73
2021/05/23 01:26:20;;;;;;;23.33;7.25;;;17.40;99.90;;;;;;5042884;28;20030;-73
2021/05/23 01:28:55;;;;;;;22.05;6.72;;;17.40;99.90;;;;;;5038742;28;20032;-72
2021/05/23 01:31:23;;;;;;;15.55;6.60;;;17.30;99.90;;;;;;5043178;28;20028;-73
2021/05/23 01:33:55;;;;;;;16.20;5.35;;;17.30;99.90;;;;;;5031283;28;20074;-73
2021/05/23 01:36:28;;;;;;;17.33;7.18;;;17.30;99.90;;;;;;5026878;28;20041;-73
2021/05/23 01:38:55;;;;;;;15.88;5.75;;;17.30;99.90;;;;;;5032822;28;20494;-73
2021/05/23 01:41:22;;;;;;;22.20;6.70;;;17.40;99.90;;;;;;5032955;28;20026;-73
2021/05/23 01:43:48;;;;;;;11.70;4.80;;;17.40;99.90;;;;;;5032445;28;20099;-73
2021/05/23 01:46:16;;;;;;;21.45;5.88;;;17.50;99.90;;;;;;5032335;28;20040;-73
2021/05/23 01:48:42;;;;;;;16.98;6.30;;;17.50;99.90;;;;;;5023089;28;20029;-73
2021/05/23 01:51:08;;;;;;;20.10;4.95;;;17.40;99.90;;;;;;5032821;28;20387;-73
2021/05/23 01:53:36;;;;;;;21.60;6.53;;;17.50;99.90;;;;;;5027937;28;20033;-73
2021/05/23 01:56:03;;;;;;;21.50;6.50;;;17.40;99.90;;;;;;5027811;28;20120;-73
2021/05/23 01:58:29;;;;;;;21.95;6.63;;;17.40;99.90;;;;;;5027578;28;20027;-73
2021/05/23 02:00:55;;;;;;;16.98;5.55;;;17.40;99.90;;;;;;5031385;28;20026;-73
2021/05/23 02:03:23;;;;;;;20.60;6.00;;;17.40;99.90;;;;;;5030782;28;20052;-73
2021/05/23 02:05:54;;;;;;;22.67;6.05;;;17.50;99.90;;;;;;5030642;28;20113;-73
2021/05/23 02:08:23;;;;;;;22.33;5.77;;;17.60;99.90;;;;;;5031302;28;20025;-73
2021/05/23 02:10:50;;;;;;;16.65;5.70;;;17.60;99.90;;;;;;5031510;28;20495;-73
2021/05/23 02:13:17;;;;;;;23.85;6.45;;;17.50;99.90;;;;;;5031619;28;20357;-73
2021/05/23 02:15:43;;;;;;;17.25;5.95;;;17.50;99.90;;;;;;5031084;28;20029;-73
2021/05/23 02:18:09;;;;;;;22.48;6.10;;;17.50;99.90;;;;;;5031496;28;20018;-73
2021/05/23 02:20:36;;;;;;;16.88;5.32;;;17.40;99.90;;;;;;5030015;28;20064;-73
2021/05/23 02:23:06;;;;;;;17.10;6.45;;;17.40;99.90;;;;;;5025405;28;20022;-72
2021/05/23 02:25:33;;;;;;;24.25;7.22;;;17.40;99.90;;;;;;5029458;28;20518;-73
2021/05/23 02:28:02;;;;;;;20.45;6.93;;;17.40;99.90;;;;;;5031155;28;20394;-72
2021/05/23 02:30:34;;;;;;;16.38;5.10;;;17.50;99.90;;;;;;5029944;28;20029;-73
2021/05/23 02:33:00;;;;;;;20.48;6.03;;;17.50;99.90;;;;;;5023121;28;20407;-72
2021/05/23 02:35:28;;;;;;;19.00;7.07;;;17.50;99.90;;;;;;5029042;28;20030;-73
2021/05/23 02:37:55;;;;;;;22.02;6.38;;;17.50;99.90;;;;;;5030683;28;20418;-72
2021/05/23 02:40:24;;;;;;;20.65;5.93;;;17.50;99.90;;;;;;5030252;28;20033;-72
2021/05/23 02:42:50;;;;;;;20.88;6.28;;;17.60;99.90;;;;;;5030074;28;20026;-72
2021/05/23 02:45:18;;;;;;;23.13;8.30;;;17.50;99.90;;;;;;5029804;28;20369;-72
2021/05/23 02:47:45;;;;;;;18.58;6.40;;;17.50;99.90;;;;;;5029812;28;20022;-72
2021/05/23 02:50:14;;;;;;;28.08;6.10;;;17.50;99.90;;;;;;5029936;28;20397;-72
2021/05/23 02:52:40;;;;;;;24.98;6.80;;;17.60;99.90;;;;;;5029616;28;20049;-73
2021/05/23 02:55:07;;;;;;;26.63;6.38;;;17.50;99.90;;;;;;5015788;28;20151;-73
2021/05/23 02:57:37;;;;;;;18.63;5.35;;;17.60;99.90;;;;;;5030130;28;20024;-73
2021/05/23 03:00:06;;;;;;;20.95;5.38;;;17.50;99.90;;;;;;5032065;28;20049;-74
2021/05/23 03:02:32;;;;;;;20.80;5.65;;;17.50;99.90;;;;;;5026619;28;20418;-73
2021/05/23 03:04:58;;;;;;;24.13;6.10;;;17.70;99.90;;;;;;5028606;28;20040;-73
2021/05/23 03:07:24;;;;;;;15.20;5.65;;;17.60;99.90;;;;;;5029185;28;20030;-74
2021/05/23 03:09:49;;;;;;;20.08;5.65;;;17.60;99.90;;;;;;5029685;28;20034;-73
2021/05/23 03:12:16;;;;;;;12.90;6.25;;;17.60;99.90;;;;;;5028857;28;20021;-73
2021/05/23 03:14:42;;;;;;;23.13;5.75;;;17.60;99.90;;;;;;5032956;28;20384;-73
2021/05/23 03:17:11;;;;;;;18.77;5.13;;;17.60;99.90;;;;;;5031961;28;20036;-73
2021/05/23 03:19:38;;;;;;;21.73;7.03;;;17.60;99.90;;;;;;5029430;28;20380;-72
2021/05/23 03:22:06;;;;;;;19.85;5.72;;;17.60;99.90;;;;;;5032319;28;20441;-73
2021/05/23 03:24:34;;;;;;;31.35;5.55;;;17.60;99.90;;;;;;5032085;28;20036;-73
2021/05/23 03:27:01;;;;;;;19.27;7.85;;;17.50;99.90;;;;;;5033461;28;20025;-73
2021/05/23 03:29:27;;;;;;;18.80;6.97;;;17.60;99.90;;;;;;5032774;28;20036;-73
2021/05/23 03:31:52;;;;;;;11.30;5.88;;;17.60;99.90;;;;;;5030034;28;20026;-72
2021/05/23 03:34:18;;;;;;;16.23;6.65;;;17.50;99.90;;;;;;5032841;28;20064;-72
2021/05/23 03:36:44;;;;;;;13.68;6.25;;;17.60;99.90;;;;;;5028854;28;20018;-72
2021/05/23 03:39:10;;;;;;;23.45;7.68;;;17.60;99.90;;;;;;5033705;28;20484;-72
2021/05/23 03:41:35;;;;;;;22.52;7.88;;;17.60;99.90;;;;;;5032483;28;20033;-73
2021/05/23 03:44:01;;;;;;;30.77;7.93;;;17.60;99.90;;;;;;5032519;28;20041;-71
2021/05/23 03:46:27;;;;;;;18.15;5.90;;;17.60;99.90;;;;;;5032183;28;20131;-73
2021/05/23 03:48:53;;;;;;;24.52;5.78;;;17.60;99.90;;;;;;5031636;28;20100;-73
2021/05/23 03:51:19;;;;;;;21.73;6.20;;;17.70;99.90;;;;;;5031473;28;20017;-73
2021/05/23 03:53:44;;;;;;;25.63;6.90;;;17.70;99.90;;;;;;5032734;28;20787;-73
2021/05/23 03:56:10;;;;;;;19.00;6.50;;;17.60;99.90;;;;;;5028833;28;20033;-73
2021/05/23 03:58:49;;;;;;;19.15;6.90;;;17.60;99.90;;;;;;5026089;28;20029;-74
2021/05/23 04:01:15;;;;;;;15.63;5.88;;;17.60;99.90;;;;;;5030073;28;20029;-73
2021/05/23 04:03:42;;;;;;;21.50;6.43;;;17.60;99.90;;;;;;5033706;28;20040;-73
2021/05/23 04:06:08;;;;;;;21.33;5.93;;;17.60;99.90;;;;;;5033639;28;20049;-73
2021/05/23 04:08:34;;;;;;;25.35;6.10;;;17.60;99.90;;;;;;5040120;28;20065;-73
2021/05/23 04:11:09;;;;;;;18.95;6.78;;;17.70;99.90;;;;;;5032945;28;20053;-73
2021/05/23 04:13:37;;;;;;;18.67;6.28;;;17.70;99.90;;;;;;5028525;28;20033;-73
2021/05/23 04:16:03;;;;;;;20.77;5.80;;;17.70;99.90;;;;;;5031183;28;20025;-74
2021/05/23 04:18:29;;;;;;;16.73;6.53;;;17.70;99.90;;;;;;5032499;28;20025;-73
2021/05/23 04:20:54;;;;;;;16.08;5.15;;;17.70;99.90;;;;;;5033660;28;20029;-74
2021/05/23 04:23:22;;;;;;;25.90;8.13;;;17.70;99.90;;;;;;5032588;28;20109;-74
2021/05/23 04:25:48;;;;;;;18.35;6.40;;;17.70;99.90;;;;;;5022693;28;20029;-73
2021/05/23 04:28:14;;;;;;;17.40;5.63;;;17.70;99.90;;;;;;5028079;28;20036;-73
2021/05/23 04:30:39;;;;;;;21.77;7.90;;;17.70;99.90;;;;;;5028052;28;20029;-74
2021/05/23 04:33:05;;;;;;;23.27;9.40;;;17.70;99.90;;;;;;5031733;28;20057;-73
2021/05/23 04:35:31;;;;;;;17.75;5.10;;;17.70;99.90;;;;;;5028921;28;20041;-73
2021/05/23 04:38:00;;;;;;;18.83;6.88;;;17.80;99.90;;;;;;5022641;28;20025;-73
2021/05/23 04:40:26;;;;;;;25.25;6.15;;;17.80;99.90;;;;;;5018129;28;20125;-73
2021/05/23 04:42:52;;;;;;;23.33;6.88;;;17.80;99.90;;;;;;5022560;28;20036;-73
2021/05/23 04:45:18;;;;;;;14.70;5.88;;;17.90;99.90;;;;;;5033232;28;20029;-74
2021/05/23 04:47:44;;;;;;;24.00;6.82;;;18.00;99.90;;;;;;5032474;28;20403;-73
2021/05/23 04:50:11;;;;;;;21.92;6.30;;;18.00;99.90;;;;;;5005125;28;20030;-74
2021/05/23 04:52:36;;;;;;;22.10;7.13;;;18.00;99.90;;;;;;5031961;28;20035;-74
2021/05/23 04:55:04;;;;;;;22.83;7.25;;;18.00;99.90;;;;;;5032418;28;20026;-74
2021/05/23 04:57:29;;;;;;;17.55;6.60;;;18.00;99.90;;;;;;5029967;28;20163;-74
2021/05/23 04:59:55;;;;;;;30.30;7.10;;;18.10;99.90;;;;;;5024176;28;20112;-75
2021/05/23 05:02:21;;;;;;;17.42;6.75;;;18.10;99.90;;;;;;5024041;28;20733;-74
2021/05/23 05:04:47;;;;;;;29.58;7.45;;;18.10;99.90;;;;;;5030728;28;20036;-73
2021/05/23 05:07:13;;;;;;;26.00;7.13;;;18.10;99.90;;;;;;5033078;28;20368;-75
2021/05/23 05:09:40;;;;;;;20.65;7.53;;;18.10;99.90;;;;;;5032696;28;20033;-73
2021/05/23 05:12:06;;;;;;;17.90;6.88;;;18.00;99.90;;;;;;5032534;28;20030;-73
2021/05/23 05:14:32;;;;;;;23.60;6.88;;;18.00;99.90;;;;;;5032332;28;20022;-74
2021/05/23 05:16:58;;;;;;;16.27;6.53;;;18.00;99.90;;;;;;5013838;28;20060;-74
2021/05/23 05:19:24;;;;;;;29.98;8.30;;;18.10;99.90;;;;;;5031690;28;20434;-74
2021/05/23 05:21:49;;;;;;;22.65;8.02;;;18.20;99.90;;;;;;5026175;28;20032;-74
2021/05/23 05:24:15;;;;;;;15.63;6.88;;;18.20;99.90;;;;;;5017772;28;20033;-74
2021/05/23 05:26:41;;;;;;;17.33;7.28;;;18.20;99.90;;;;;;5029304;28;20041;-73
2021/05/23 05:29:07;;;;;;;22.73;7.25;;;18.20;99.90;;;;;;5032016;28;20546;-73
2021/05/23 05:31:33;;;;;;;25.20;7.25;;;18.20;99.90;;;;;;5031162;28;20092;-74
2021/05/23 05:33:59;;;;;;;26.70;7.43;;;18.30;99.90;;;;;;5026827;28;20028;-73
2021/05/23 05:36:26;;;;;;;18.63;6.60;;;18.30;99.90;;;;;;5031625;28;20029;-72
2021/05/23 05:38:52;;;;;;;29.65;8.30;;;18.30;99.90;;;;;;5031301;28;20033;-73
2021/05/23 05:41:19;;;;;;;18.13;5.90;;;18.30;99.90;;;;;;5032085;28;20104;-73
2021/05/23 05:43:45;;;;;;;31.00;7.35;;;18.50;99.90;;;;;;5031688;28;20024;-73
2021/05/23 05:46:11;;;;;;;21.40;7.13;;;18.60;99.90;;;;;;5016116;28;20037;-71
2021/05/23 05:48:37;;;;;;;25.95;7.72;;;18.80;99.90;;;;;;5030372;28;20094;-73
2021/05/23 05:51:02;;;;;;;25.90;6.32;;;18.90;99.90;;;;;;5031360;28;20487;-74
2021/05/23 05:53:28;;;;;;;26.15;7.85;;;19.00;99.90;;;;;;5031683;28;20092;-73
2021/05/23 05:55:54;;;;;;;26.70;6.50;;;19.10;99.90;;;;;;5033437;28;20044;-72
2021/05/23 05:58:20;;;;;;;26.98;7.10;;;19.10;99.90;;;;;;5031048;28;20040;-73
2021/05/23 06:00:46;;;;;;;21.23;8.02;;;19.10;99.90;;;;;;5031599;28;20033;-73
2021/05/23 06:03:11;;;;;;;23.33;7.20;;;19.10;99.90;;;;;;5031674;28;20052;-73
2021/05/23 06:05:37;;;;;;;23.27;6.53;;;19.20;99.90;;;;;;5031631;28;20049;-74
2021/05/23 06:08:03;;;;;;;22.25;6.35;;;19.40;99.90;;;;;;5030735;28;20037;-74
2021/05/23 06:10:29;;;;;;;28.83;7.53;;;19.40;99.90;;;;;;5031222;28;20570;-74
2021/05/23 06:12:55;;;;;;;27.80;7.32;;;19.50;99.90;;;;;;5031396;28;20105;-73
2021/05/23 06:15:20;;;;;;;18.52;6.90;;;19.70;99.90;;;;;;5030748;28;20057;-74
2021/05/23 06:17:46;;;;;;;21.42;7.78;;;19.80;99.90;;;;;;5030958;28;20055;-73
2021/05/23 06:20:13;;;;;;;33.90;7.50;;;19.80;99.90;;;;;;5031039;28;20382;-73
2021/05/23 06:22:39;;;;;;;25.23;8.10;;;19.90;99.90;;;;;;5031563;28;20026;-73
2021/05/23 06:25:06;;;;;;;18.83;6.70;;;19.80;99.90;;;;;;5031794;28;20029;-74
2021/05/23 06:27:33;;;;;;;18.58;6.78;;;19.80;99.90;;;;;;5030709;28;20029;-73
2021/05/23 06:29:58;;;;;;;26.10;8.43;;;19.80;99.90;;;;;;5031422;28;20582;-74
2021/05/23 06:32:24;;;;;;;24.65;5.82;;;19.80;99.90;;;;;;5031312;28;20037;-73
2021/05/23 06:34:50;;;;;;;19.80;7.18;;;19.80;99.90;;;;;;5030633;28;20034;-73
2021/05/23 06:37:16;;;;;;;18.67;6.82;;;19.80;99.90;;;;;;5030871;28;20026;-74
2021/05/23 06:39:42;;;;;;;28.48;7.55;;;19.80;99.90;;;;;;5030118;28;20105;-74
2021/05/23 06:42:08;;;;;;;19.90;6.53;;;19.90;99.90;;;;;;5031165;28;20064;-73
2021/05/23 06:44:34;;;;;;;26.73;7.43;;;19.90;99.90;;;;;;5032002;28;20095;-73
2021/05/23 06:47:00;;;;;;;17.08;6.45;;;20.00;99.90;;;;;;5034712;28;20026;-73
2021/05/23 06:49:26;;;;;;;33.20;9.13;;;20.10;99.90;;;;;;5030694;28;20498;-73
2021/05/23 06:51:51;;;;;;;19.60;8.63;;;20.10;99.90;;;;;;5032015;28;20056;-72
2021/05/23 06:54:17;;;;;;;27.15;8.02;;;20.00;99.90;;;;;;5031920;28;20121;-74
2021/05/23 06:56:43;;;;;;;26.40;7.88;;;20.00;99.90;;;;;;5032118;28;20511;-74
2021/05/23 06:59:09;;;;;;;22.15;7.15;;;19.90;99.90;;;;;;5031794;28;20395;-74
2021/05/23 07:01:35;;;;;;;21.63;7.45;;;19.90;99.90;;;;;;5031931;28;20096;-73
2021/05/23 07:04:00;;;;;;;23.15;7.18;;;19.90;99.90;;;;;;5031180;28;20025;-76
2021/05/23 07:06:26;;;;;;;24.52;7.07;;;19.90;99.90;;;;;;5029957;28;20521;-75
2021/05/23 07:08:52;;;;;;;16.33;6.97;;;19.90;99.90;;;;;;5030278;28;20041;-74
2021/05/23 07:11:19;;;;;;;29.88;7.60;;;20.10;99.90;;;;;;5030749;28;20036;-74
2021/05/23 07:13:45;;;;;;;28.75;7.88;;;20.00;99.90;;;;;;5013111;28;20033;-74
2021/05/23 07:16:10;;;;;;;16.90;6.85;;;20.00;99.90;;;;;;5030874;28;20055;-75
2021/05/23 07:18:36;;;;;;;29.17;8.40;;;20.00;99.90;;;;;;5031002;28;20592;-74
2021/05/23 07:21:02;;;;;;;32.95;8.00;;;20.10;99.90;;;;;;5031101;28;20025;-74
2021/05/23 07:23:28;;;;;;;27.27;7.13;;;20.00;99.90;;;;;;5031113;28;20029;-74
2021/05/23 07:25:55;;;;;;;26.55;8.27;;;19.90;99.90;;;;;;5030889;28;20029;-74
2021/05/23 07:28:21;;;;;;;23.98;7.72;;;19.90;99.90;;;;;;5030787;28;20034;-74
2021/05/23 07:30:47;;;;;;;22.95;7.45;;;19.90;99.90;;;;;;5030994;28;20029;-74
2021/05/23 07:33:17;;;;;;;23.73;8.02;;;19.80;99.90;;;;;;5030301;28;20033;-74
2021/05/23 07:35:43;;;;;;;20.90;7.35;;;19.90;99.90;;;;;;5031748;28;20024;-76
2021/05/23 07:38:09;;;;;;;28.17;7.95;;;19.80;99.90;;;;;;5030517;28;20097;-73
2021/05/23 07:40:35;;;;;;;19.85;7.18;;;19.90;99.90;;;;;;5030986;28;20553;-74
2021/05/23 07:43:02;;;;;;;33.50;9.15;;;19.90;99.90;;;;;;5035283;28;20632;-74
2021/05/23 07:45:29;;;;;;;27.42;9.18;;;19.90;99.90;;;;;;5031274;28;20117;-74
2021/05/23 07:47:55;;;;;;;25.95;7.68;;;19.80;99.90;;;;;;5030341;28;20043;-74
2021/05/23 07:50:22;;;;;;;17.77;7.20;;;19.80;99.90;;;;;;5013197;28;20030;-74
2021/05/23 07:52:47;;;;;;;25.17;8.25;;;19.80;99.90;;;;;;5032212;28;20025;-74
2021/05/23 07:55:14;;;;;;;25.38;7.35;;;19.70;99.90;;;;;;5031755;28;20033;-73
2021/05/23 07:57:39;;;;;;;25.10;8.07;;;19.70;99.90;;;;;;5033942;28;20028;-73
2021/05/23 08:00:07;;;;;;;21.67;6.80;;;19.70;99.90;;;;;;5033059;28;20483;-71
2021/05/23 08:02:33;;;;;;;21.75;7.57;;;19.70;99.90;;;;;;5035081;28;20036;-72
2021/05/23 08:04:59;;;;;;;17.55;6.90;;;19.70;99.90;;;;;;5035548;28;20025;-75
2021/05/23 08:07:25;;;;;;;36.33;8.65;;;19.70;99.90;;;;;;5032964;28;20400;-74
2021/05/23 08:09:51;;;;;;;27.80;7.38;;;19.60;99.90;;;;;;5024536;28;20697;-73
2021/05/23 08:12:18;;;;;;;15.80;6.90;;;19.70;99.90;;;;;;5033711;28;20076;-73
2021/05/23 08:14:44;;;;;;;21.55;6.35;;;19.70;99.90;;;;;;5033175;28;20100;-72
2021/05/23 08:17:10;;;;;;;22.67;6.90;;;19.80;99.90;;;;;;5033147;28;20104;-73
2021/05/23 08:19:36;;;;;;;22.83;6.60;;;19.90;99.90;;;;;;5015790;28;20495;-74
2021/05/23 08:22:02;;;;;;;22.75;6.72;;;20.00;99.90;;;;;;5032867;28;20357;-71
2021/05/23 08:24:30;;;;;;;26.65;8.45;;;20.10;99.90;;;;;;5033059;28;20056;-73
2021/05/23 08:26:57;;;;;;;19.00;7.07;;;20.20;99.90;;;;;;5033563;28;20662;-74
2021/05/23 08:29:23;;;;;;;18.70;6.85;;;20.30;99.90;;;;;;5033573;28;20053;-75
2021/05/23 08:31:49;;;;;;;26.02;7.30;;;20.40;99.90;;;;;;5034421;28;20030;-75
2021/05/23 08:34:15;;;;;;;23.23;6.97;;;20.60;99.90;;;;;;5033533;28;20096;-75
2021/05/23 08:36:41;;;;;;;28.35;8.93;;;20.60;99.90;;;;;;5034270;28;20518;-75
2021/05/23 08:39:07;;;;;;;15.32;6.65;;;20.60;99.90;;;;;;5030167;28;20030;-76
2021/05/23 08:41:32;;;;;;;25.58;6.93;;;20.80;99.90;;;;;;5012949;28;20106;-75
2021/05/23 08:43:58;;;;;;;18.08;6.40;;;20.80;99.90;;;;;;5016101;28;20468;-76
2021/05/23 08:46:29;;;;;;;18.85;6.10;;;20.90;99.90;;;;;;5034979;28;20443;-75
2021/05/23 08:48:56;;;;;;;12.13;6.22;;;21.00;99.90;;;;;;5034859;28;20021;-73
2021/05/23 08:51:23;;;;;;;18.52;6.45;;;21.00;99.90;;;;;;5035938;28;20022;-73
2021/05/23 08:53:48;;;;;;;16.40;6.53;;;21.10;99.90;;;;;;5045393;28;20400;-77
2021/05/23 08:56:14;;;;;;;25.30;6.53;;;21.30;99.90;;;;;;5035576;28;20025;-76
2021/05/23 08:58:40;;;;;;;18.58;6.68;;;21.50;99.90;;;;;;5033422;28;20064;-76
2021/05/23 09:01:05;;;;;;;14.55;6.60;;;21.50;99.90;;;;;;5033781;28;20048;-75
2021/05/23 09:03:31;;;;;;;10.55;5.50;;;21.40;99.90;;;;;;5032779;28;20033;-74
2021/05/23 09:05:57;;;;;;;15.60;6.05;;;21.30;99.90;;;;;;5033396;28;20437;-76
2021/05/23 09:08:25;;;;;;;18.77;6.63;;;21.10;99.90;;;;;;5032992;28;20475;-75
2021/05/23 09:10:58;;;;;;;16.55;6.22;;;21.00;99.90;;;;;;5033029;28;20025;-75
2021/05/23 09:13:36;;;;;;;15.77;6.00;;;21.00;99.90;;;;;;5017078;28;20026;-74
2021/05/23 09:16:05;;;;;;;19.67;6.30;;;21.10;99.90;;;;;;5036755;28;20108;-75
2021/05/23 09:18:50;;;;;;;17.63;5.50;;;21.20;99.90;;;;;;5044733;28;20017;-73
2021/05/23 09:21:19;;;;;;;10.40;4.82;;;21.00;99.90;;;;;;5037058;28;20029;-75
2021/05/23 09:24:02;;;;;;;20.70;7.95;;;21.00;99.90;;;;;;5032533;28;20030;-76
2021/05/23 09:26:33;;;;;;;25.63;7.57;;;20.90;99.90;;;;;;5032490;28;20091;-75
2021/05/23 09:29:16;;;;;;;21.92;6.22;;;20.90;99.90;;;;;;5032634;28;20021;-74
2021/05/23 09:31:46;;;;;;;15.15;7.20;;;21.10;99.90;;;;;;5032774;28;20029;-76
2021/05/23 09:34:20;;;;;;;18.80;6.47;;;21.30;99.90;;;;;;5032764;28;20083;-74
2021/05/23 09:36:48;;;;;;;21.63;6.03;;;21.60;99.90;;;;;;5011936;28;20030;-73
2021/05/23 09:39:15;;;;;;;18.83;6.05;;;21.60;99.90;;;;;;5007573;28;20057;-73
2021/05/23 09:41:41;;;;;;;14.25;6.05;;;21.60;99.90;;;;;;5004187;28;20034;-72
2021/05/23 09:44:21;;;;;;;22.25;6.28;;;21.60;99.90;;;;;;4993245;28;20036;-72
2021/05/23 09:47:11;;;;;;;14.82;6.05;;;21.50;99.90;;;;;;5008001;28;20030;-72
2021/05/23 09:49:41;;;;;;;16.55;6.13;;;21.70;99.90;;;;;;5006073;28;20026;-72
2021/05/23 09:52:12;;;;;;;19.98;7.00;;;21.90;99.90;;;;;;5011512;28;20107;-73
2021/05/23 09:54:51;;;;;;;19.90;6.03;;;21.90;99.90;;;;;;5011252;28;20018;-73
2021/05/23 09:57:22;;;;;;;15.52;7.18;;;21.90;99.90;;;;;;5011462;28;20030;-73
2021/05/23 10:00:10;;;;;;;13.43;6.72;;;22.10;99.90;;;;;;4994224;28;20022;-73
2021/05/23 10:02:55;;;;;;;13.93;6.22;;;22.20;99.90;;;;;;5004688;28;20026;-74
2021/05/23 10:05:21;;;;;;;23.90;8.60;;;22.20;99.90;;;;;;5002567;28;20264;-73
2021/05/23 10:07:47;;;;;;;14.25;8.23;;;22.10;99.90;;;;;;4999563;28;20036;-73
2021/05/23 10:10:14;;;;;;;21.83;10.40;;;21.90;99.90;;;;;;4987743;28;20022;-74
2021/05/23 10:12:40;;;;;;;24.85;9.63;;;21.90;99.90;;;;;;5007629;28;20013;-73
2021/05/23 10:15:10;;;;;;;25.85;9.40;;;21.90;99.90;;;;;;4998666;28;20030;-75
2021/05/23 10:17:41;;;;;;;17.77;9.70;;;21.90;99.90;;;;;;4994834;28;20027;-73
2021/05/23 10:20:10;;;;;;;23.97;12.43;;;22.00;99.90;;;;;;4998105;28;20494;-71
2021/05/23 10:22:39;;;;;;;18.88;10.52;;;21.90;99.90;;;;;;5008810;28;20021;-72
2021/05/23 10:25:11;;;;;;;25.02;11.43;;;22.10;99.90;;;;;;5011184;28;20029;-71
2021/05/23 10:27:43;;;;;;;21.23;12.02;;;22.20;99.90;;;;;;5009896;28;20099;-72
2021/05/23 10:30:10;;;;;;;25.08;9.77;;;22.40;99.90;;;;;;5010848;28;20488;-73
2021/05/23 10:32:38;;;;;;;27.13;12.80;;;22.30;99.90;;;;;;5008968;28;20025;-73
2021/05/23 10:35:17;;;;;;;21.17;10.70;;;22.50;99.90;;;;;;5025897;28;20029;-69
2021/05/23 10:37:45;;;;;;;16.73;8.65;;;22.70;99.90;;;;;;5025572;28;20014;-69
2021/05/23 10:40:25;;;;;;;16.48;7.15;;;22.70;99.90;;;;;;5025442;28;20036;-73
2021/05/23 10:42:53;;;;;;;21.17;7.82;;;22.90;99.90;;;;;;5017564;28;20383;-74
2021/05/23 10:45:45;;;;;;;29.60;8.10;;;22.90;99.90;;;;;;5029401;28;20430;-71
2021/05/23 10:48:18;;;;;;;22.10;8.93;;;22.90;99.90;;;;;;5024920;28;20119;-74
2021/05/23 10:50:47;;;;;;;28.90;8.50;;;22.80;99.90;;;;;;5031458;28;20110;-74
2021/05/23 10:53:13;;;;;;;16.48;7.70;;;22.90;99.90;;;;;;5029006;28;20021;-73
2021/05/23 10:55:50;;;;;;;20.92;7.97;;;23.20;99.90;;;;;;5027083;28;20055;-74
2021/05/23 10:58:23;;;;;;;18.20;7.25;;;23.20;99.90;;;;;;5029733;28;20017;-73
2021/05/23 11:00:53;;;;;;;18.80;7.18;;;23.30;99.90;;;;;;5030131;28;20026;-73
2021/05/23 11:03:20;;;;;;;17.40;6.88;;;23.40;99.90;;;;;;5008829;28;20430;-73
2021/05/23 11:05:47;;;;;;;22.40;8.35;;;23.40;99.90;;;;;;5027292;28;20027;-74
2021/05/23 11:08:14;;;;;;;22.38;8.68;;;23.50;99.90;;;;;;5014975;28;20022;-73
2021/05/23 11:10:45;;;;;;;17.13;6.65;;;23.40;99.90;;;;;;5017424;28;20033;-75
2021/05/23 11:13:14;;;;;;;15.07;6.78;;;23.10;99.90;;;;;;5028246;28;20034;-72
2021/05/23 11:15:43;;;;;;;15.13;6.03;;;23.00;99.90;;;;;;5030960;28;20028;-75
2021/05/23 11:18:10;;;;;;;18.33;7.00;;;23.00;99.90;;;;;;5010228;28;20025;-74
2021/05/23 11:20:36;;;;;;;17.35;6.78;;;23.00;99.90;;;;;;5030154;28;20087;-72
2021/05/23 11:23:04;;;;;;;13.93;6.30;;;23.10;99.90;;;;;;5032983;28;20025;-74
2021/05/23 11:25:30;;;;;;;16.55;6.35;;;23.40;99.90;;;;;;5029099;28;20037;-72
2021/05/23 11:28:07;;;;;;;17.20;6.25;;;23.70;99.90;;;;;;5028574;28;20108;-73
2021/05/23 11:30:38;;;;;;;14.43;5.95;;;23.90;99.90;;;;;;5036510;28;20068;-73
2021/05/23 11:33:06;;;;;;;12.43;5.80;;;24.00;99.90;;;;;;5017106;28;20029;-73
2021/05/23 11:35:33;;;;;;;11.75;5.38;;;24.00;99.90;;;;;;5013568;28;20022;-74
2021/05/23 11:38:00;;;;;;;12.45;5.32;;;23.90;99.90;;;;;;5012363;28;20026;-74
2021/05/23 11:40:41;;;;;;;12.75;5.25;;;24.00;99.90;;;;;;5011271;28;20026;-72
2021/05/23 11:43:19;;;;;;;15.18;5.22;;;24.00;99.90;;;;;;5010363;28;20048;-74
2021/05/23 11:46:03;;;;;;;11.30;5.47;;;24.10;99.90;;;;;;5011388;28;20026;-71
2021/05/23 11:48:36;;;;;;;16.05;5.13;;;24.20;99.90;;;;;;5014554;28;20079;-77
2021/05/23 11:51:03;;;;;;;19.45;6.40;;;24.30;99.90;;;;;;5013077;28;20121;-75
2021/05/23 11:53:39;;;;;;;13.15;5.13;;;24.20;99.90;;;;;;5015419;28;20562;-74
2021/05/23 11:56:07;;;;;;;11.00;4.75;;;24.30;99.90;;;;;;5013242;28;20059;-73
2021/05/23 11:58:33;;;;;;;18.38;7.18;;;24.60;99.90;;;;;;5002017;28;20026;-74
2021/05/23 12:01:31;;;;;;;16.63;5.38;;;24.70;99.90;;;;;;5013310;28;20068;-74
2021/05/23 12:04:10;;;;;;;13.80;5.07;;;24.60;99.90;;;;;;4986512;28;20041;-73
2021/05/23 12:06:37;;;;;;;20.08;6.22;;;24.40;99.90;;;;;;5007153;28;20036;-72
2021/05/23 12:09:13;;;;;;;19.23;5.53;;;24.50;99.90;;;;;;5011521;28;20037;-73
2021/05/23 12:11:48;;;;;;;18.13;5.05;;;24.30;99.90;;;;;;5007315;28;20109;-73
2021/05/23 12:14:27;;;;;;;15.45;5.10;;;24.10;99.90;;;;;;5011370;28;20026;-72
2021/05/23 12:17:10;;;;;;;17.23;4.47;;;24.00;99.90;;;;;;5016726;28;20018;-73
2021/05/23 12:20:09;;;;;;;11.00;4.13;;;23.80;99.90;;;;;;5016981;28;20036;-72
2021/05/23 12:22:37;;;;;;;15.75;5.13;;;24.00;99.90;;;;;;5000773;28;20687;-71
2021/05/23 12:25:03;;;;;;;12.38;4.53;;;24.00;99.90;;;;;;5011836;28;20409;-72
2021/05/23 12:27:53;;;;;;;15.73;5.10;;;23.80;99.90;;;;;;5000056;28;20120;-72
2021/05/23 12:30:22;;;;;;;11.82;4.13;;;23.70;99.90;;;;;;5013575;28;20109;-72
2021/05/23 12:32:52;;;;;;;16.27;5.43;;;23.90;99.90;;;;;;5001237;28;20546;-71
2021/05/23 12:35:29;;;;;;;11.35;5.20;;;24.10;99.90;;;;;;5040499;28;20033;-72
2021/05/23 12:37:59;;;;;;;17.95;5.80;;;24.40;99.90;;;;;;5031727;28;20029;-73
2021/05/23 12:40:36;;;;;;;16.73;4.93;;;24.30;99.90;;;;;;5039766;28;20083;-71
2021/05/23 12:43:15;;;;;;;16.25;5.38;;;24.20;99.90;;;;;;5024354;28;20434;-72